首页
METAR-TAF:

METAR-TAF

机场 :

Lincoln Airport

林肯, 內布拉斯加州, 美国

纬度: 40-49-52N, 经度: 096-45-52W, 海拔: 370米

当前天气观测

该预报发布于56分钟前的21:54 UTC
风速17节,风向,有时为24节阵风
温度 30°C
湿度 46%
气压 1015 hPa
能見度: 16.1公里
天空无云

METAR: KLNK 262154Z AUTO 19017G24KT 10SM CLR 30/17 A2998 RMK AO2 SLP139 T03000172

时间: 17:50 (22:50 UTC)

预报

该预报发布于2小时和39分钟前的20:11 UTC
预报有效从26日的 20点(UTC)到 27日的 18点(UTC)
风速12节,风向
能見度: 10公里
散云层高于25000英尺
短暂存在
从 26日的 20点(UTC)到 26日的 23点(UTC)
风速15节,风向南转西南,有时为20节阵风
从 27日的 0100点(UTC)
风速10节,风向南转南东
能見度: 10公里
散云层高于25000英尺
从 27日的 0600点(UTC)
风速11节,风向南转南东
能見度: 10公里
多云层高于25000英尺
从 27日的 1200点(UTC)
风速8节,风向南转南东
能見度: 10公里
散云层高于10000英尺
多云层高于25000英尺
从 27日的 1500点(UTC)
风速8节,风向南转南东
能見度: 10公里
散云层高于10000英尺
多云层高于25000英尺

TAF: KLNK 262011Z 2620/2718 19012KT P6SM SCT250 TEMPO 2620/2623 20015G20KT FM270100 16010KT P6SM SCT250 FM270600 16011KT P6SM BKN250 WS019/21042KT FM271200 15008KT P6SM SCT100 BKN250 FM271500 15008KT P6SM SCT100 BKN250

超过4000个机场的气象观测和天气预报(METAR&TAF报告)。

可查询的气象台以黄色和红色小点在地图上表示。

将鼠标移到小点上方,可查看气象台名称。

然后点击查看天气观测和预报。

如需切换地图:点击带黑十字的绿色按钮放大地图;点击带横线的绿色按钮缩小地图;或者点击绿色箭头查看邻近地区的地图。


METAR-TAF: